createdAt,value
2022-10-14T00:00:53.824Z,0
2022-10-14T00:01:54.308Z,0
2022-10-14T00:02:53.641Z,0
2022-10-14T00:03:56.397Z,0
2022-10-14T00:04:56.496Z,0
2022-10-14T00:05:53.647Z,0
2022-10-14T00:06:53.775Z,0
2022-10-14T00:07:54.007Z,0
2022-10-14T00:08:56.434Z,0
2022-10-14T00:09:53.723Z,0
2022-10-14T00:10:53.663Z,0
2022-10-14T00:11:53.778Z,0
2022-10-14T00:12:53.745Z,0
2022-10-14T00:13:53.646Z,0
2022-10-14T00:14:53.626Z,0
2022-10-14T00:15:53.737Z,0
2022-10-14T00:16:54.139Z,0
2022-10-14T00:17:54.238Z,0
2022-10-14T00:18:53.672Z,0
2022-10-14T00:19:56.499Z,0
2022-10-14T00:20:53.745Z,0
2022-10-14T00:21:53.660Z,0
2022-10-14T00:22:53.896Z,0
2022-10-14T00:23:53.818Z,0
2022-10-14T00:24:53.674Z,0
2022-10-14T00:25:53.727Z,0
2022-10-14T00:26:53.745Z,0
2022-10-14T00:27:53.681Z,0
2022-10-14T00:28:54.252Z,0
2022-10-14T00:29:54.010Z,0
2022-10-14T00:30:56.567Z,0
2022-10-14T00:31:53.770Z,0
2022-10-14T00:32:53.673Z,0
2022-10-14T00:33:53.852Z,0
2022-10-14T00:34:53.830Z,0
2022-10-14T00:35:53.722Z,0
2022-10-14T00:36:53.699Z,0
2022-10-14T00:37:53.716Z,0
2022-10-14T00:38:53.779Z,0
2022-10-14T00:39:59.405Z,0
2022-10-14T00:40:53.726Z,0
2022-10-14T00:41:56.733Z,0
2022-10-14T00:42:56.582Z,0
2022-10-14T00:43:53.721Z,0
2022-10-14T00:44:53.707Z,0
2022-10-14T00:45:54.078Z,0
2022-10-14T00:46:56.582Z,0
2022-10-14T00:47:53.770Z,0
2022-10-14T00:48:53.712Z,0
2022-10-14T00:49:54.066Z,0
2022-10-14T00:50:54.261Z,0
2022-10-14T00:51:53.969Z,0
2022-10-14T00:52:56.595Z,0
2022-10-14T00:53:53.708Z,0
2022-10-14T00:54:53.888Z,0
2022-10-14T00:55:54.064Z,0
2022-10-14T00:56:53.744Z,0
2022-10-14T00:57:56.602Z,0
2022-10-14T00:58:53.720Z,0
2022-10-14T00:59:53.908Z,0
2022-10-14T01:00:54.162Z,0
2022-10-14T01:01:53.792Z,0
2022-10-14T01:02:53.990Z,0
2022-10-14T01:03:53.918Z,0
2022-10-14T01:04:53.800Z,0
2022-10-14T01:05:53.829Z,0
2022-10-14T01:06:53.935Z,0
2022-10-14T01:07:53.942Z,0
2022-10-14T01:08:56.891Z,0
2022-10-14T01:09:53.785Z,0
2022-10-14T01:10:53.782Z,0
2022-10-14T01:12:38.776Z,0
2022-10-14T01:12:53.847Z,0
2022-10-14T01:13:53.953Z,0
2022-10-14T01:14:53.788Z,0
2022-10-14T01:15:53.913Z,0
2022-10-14T01:16:53.813Z,0
2022-10-14T01:17:53.812Z,0
2022-10-14T01:18:53.817Z,0
2022-10-14T01:19:54.111Z,0
2022-10-14T01:20:53.816Z,0
2022-10-14T01:21:53.862Z,0
2022-10-14T01:22:53.781Z,0
2022-10-14T01:23:53.876Z,0
2022-10-14T01:24:56.751Z,0
2022-10-14T01:25:53.957Z,0
2022-10-14T01:26:54.005Z,0
2022-10-14T01:27:53.861Z,0
2022-10-14T01:28:54.535Z,0
2022-10-14T01:29:53.875Z,0
2022-10-14T01:30:53.853Z,0
2022-10-14T01:31:53.839Z,0
2022-10-14T01:32:53.898Z,0
2022-10-14T01:33:53.975Z,0
2022-10-14T01:34:54.037Z,0
2022-10-14T01:35:57.061Z,0
2022-10-14T01:36:54.073Z,0
2022-10-14T01:37:55.136Z,0
2022-10-14T01:38:54.157Z,0
2022-10-14T01:39:54.019Z,0
2022-10-14T01:40:57.048Z,0
2022-10-14T01:41:53.997Z,0
2022-10-14T01:42:53.893Z,0
2022-10-14T01:43:54.136Z,0
2022-10-14T01:44:54.209Z,0
2022-10-14T01:45:54.031Z,0
2022-10-14T01:46:56.599Z,0
2022-10-14T01:47:53.891Z,0
2022-10-14T01:48:53.839Z,0
2022-10-14T01:49:54.074Z,0
2022-10-14T01:50:54.009Z,0
2022-10-14T01:51:56.890Z,0
2022-10-14T01:52:55.288Z,0
2022-10-14T01:53:53.896Z,0
2022-10-14T01:54:53.861Z,0
2022-10-14T01:55:54.022Z,0
2022-10-14T01:56:53.910Z,0
2022-10-14T01:57:55.128Z,0
2022-10-14T01:58:53.866Z,0
2022-10-14T01:59:54.256Z,0
2022-10-14T02:00:53.832Z,0
2022-10-14T02:01:54.655Z,0
2022-10-14T02:02:56.816Z,0
2022-10-14T02:03:53.902Z,0
2022-10-14T02:04:53.979Z,0
2022-10-14T02:05:54.023Z,0
2022-10-14T02:06:53.873Z,0
2022-10-14T02:07:53.918Z,0
2022-10-14T02:08:57.069Z,0
2022-10-14T02:09:54.005Z,0
2022-10-14T02:10:56.016Z,0
2022-10-14T02:11:54.019Z,0
2022-10-14T02:12:53.868Z,0
2022-10-14T02:13:57.380Z,0
2022-10-14T02:14:53.870Z,0
2022-10-14T02:15:53.867Z,0
2022-10-14T02:16:54.047Z,0
2022-10-14T02:17:53.914Z,0
2022-10-14T02:18:53.978Z,0
2022-10-14T02:20:00.017Z,0
2022-10-14T02:20:53.898Z,0
2022-10-14T02:21:53.943Z,0
2022-10-14T02:22:53.879Z,0
2022-10-14T02:23:53.871Z,0
2022-10-14T02:24:56.967Z,0
2022-10-14T02:25:53.886Z,0
2022-10-14T02:26:53.887Z,0
2022-10-14T02:27:53.868Z,0
2022-10-14T02:28:54.421Z,0
2022-10-14T02:29:53.913Z,0
2022-10-14T02:30:53.964Z,0
2022-10-14T02:31:53.957Z,0
2022-10-14T02:32:53.978Z,0
2022-10-14T02:33:54.102Z,0
2022-10-14T02:34:53.931Z,0
2022-10-14T02:35:57.023Z,0
2022-10-14T02:36:54.000Z,0
2022-10-14T02:37:53.891Z,0
2022-10-14T02:38:53.900Z,0
2022-10-14T02:39:54.135Z,0
2022-10-14T02:40:54.266Z,0
2022-10-14T02:41:53.910Z,0
2022-10-14T02:42:53.899Z,0
2022-10-14T02:43:54.167Z,0
2022-10-14T02:44:54.437Z,0
2022-10-14T02:45:54.089Z,0
2022-10-14T02:46:57.031Z,0
2022-10-14T02:47:53.908Z,0
2022-10-14T02:48:53.983Z,0
2022-10-14T02:49:53.904Z,0
2022-10-14T02:50:57.059Z,0
2022-10-14T02:51:53.969Z,0
2022-10-14T02:52:53.926Z,0
2022-10-14T02:53:53.913Z,0
2022-10-14T02:54:54.306Z,0
2022-10-14T02:55:54.050Z,0
2022-10-14T02:56:54.057Z,0
2022-10-14T02:57:56.852Z,0
2022-10-14T02:58:53.919Z,0
2022-10-14T02:59:53.959Z,0
2022-10-14T03:00:53.968Z,0
2022-10-14T03:01:54.228Z,0
2022-10-14T03:02:54.592Z,0
2022-10-14T03:03:53.951Z,0
2022-10-14T03:04:54.134Z,0
2022-10-14T03:05:53.945Z,0
2022-10-14T03:06:53.966Z,0
2022-10-14T03:07:54.041Z,0
2022-10-14T03:08:55.043Z,0
2022-10-14T03:09:53.960Z,0
2022-10-14T03:10:54.029Z,0
2022-10-14T03:11:53.980Z,0
2022-10-14T03:12:54.073Z,0
2022-10-14T03:13:57.076Z,0
2022-10-14T03:14:54.008Z,0
2022-10-14T03:15:54.001Z,0
2022-10-14T03:16:53.967Z,0
2022-10-14T03:17:53.996Z,0
2022-10-14T03:18:53.959Z,0
2022-10-14T03:19:57.156Z,0
2022-10-14T03:20:54.686Z,0
2022-10-14T03:21:53.997Z,0
2022-10-14T03:22:54.064Z,0
2022-10-14T03:23:54.020Z,0
2022-10-14T03:25:00.122Z,0
2022-10-14T03:25:54.127Z,0
2022-10-14T03:26:54.334Z,0
2022-10-14T03:27:54.201Z,0
2022-10-14T03:28:54.527Z,0
2022-10-14T03:29:54.002Z,0
2022-10-14T03:30:53.981Z,0
2022-10-14T03:31:54.003Z,0
2022-10-14T03:32:54.084Z,0
2022-10-14T03:33:54.053Z,0
2022-10-14T03:34:54.038Z,0
2022-10-14T03:35:56.982Z,0
2022-10-14T03:36:54.111Z,0
2022-10-14T03:37:54.036Z,0
2022-10-14T03:38:54.183Z,0
2022-10-14T03:39:54.013Z,0
2022-10-14T03:40:54.020Z,0
2022-10-14T03:41:54.022Z,0
2022-10-14T03:42:55.103Z,0
2022-10-14T03:43:54.035Z,0
2022-10-14T03:44:57.038Z,0
2022-10-14T03:45:54.100Z,0
2022-10-14T03:46:54.788Z,0
2022-10-14T03:47:54.042Z,0
2022-10-14T03:48:54.044Z,0
2022-10-14T03:49:54.065Z,0
2022-10-14T03:50:54.128Z,0
2022-10-14T03:51:57.300Z,0
2022-10-14T03:53:00.262Z,0
2022-10-14T03:53:54.029Z,0
2022-10-14T03:54:54.091Z,0
2022-10-14T03:55:54.039Z,0
2022-10-14T03:56:54.035Z,0
2022-10-14T03:57:54.026Z,0
2022-10-14T03:58:54.055Z,0
2022-10-14T03:59:54.020Z,0
2022-10-14T04:00:54.076Z,0
2022-10-14T04:01:54.398Z,0
2022-10-14T04:02:57.134Z,0
2022-10-14T04:03:54.115Z,0
2022-10-14T04:04:57.172Z,0
2022-10-14T04:05:54.037Z,0
2022-10-14T04:06:54.118Z,0
2022-10-14T04:07:57.087Z,0
2022-10-14T04:08:54.061Z,0
2022-10-14T04:09:54.143Z,0
2022-10-14T04:10:56.792Z,0
2022-10-14T04:11:54.190Z,0
2022-10-14T04:12:57.132Z,0
2022-10-14T04:13:57.249Z,0
2022-10-14T04:14:54.056Z,0
2022-10-14T04:15:54.096Z,0
2022-10-14T04:16:56.846Z,0
2022-10-14T04:17:54.091Z,0
2022-10-14T04:18:56.944Z,0
2022-10-14T04:19:54.062Z,0
2022-10-14T04:20:54.057Z,0
2022-10-14T04:21:54.075Z,0
2022-10-14T04:22:54.071Z,0
2022-10-14T04:23:54.064Z,0
2022-10-14T04:24:56.828Z,0
2022-10-14T04:25:54.061Z,0
2022-10-14T04:26:54.076Z,0
2022-10-14T04:27:54.091Z,0
2022-10-14T04:28:54.551Z,0
2022-10-14T04:29:56.888Z,0
2022-10-14T04:30:56.842Z,0
2022-10-14T04:31:54.111Z,0
2022-10-14T04:32:54.113Z,0
2022-10-14T04:33:54.074Z,0
2022-10-14T04:34:54.074Z,0
2022-10-14T04:35:57.179Z,0
2022-10-14T04:36:54.125Z,0
2022-10-14T04:37:54.118Z,0
2022-10-14T04:38:54.089Z,0
2022-10-14T04:39:54.092Z,0
2022-10-14T04:40:57.524Z,0
2022-10-14T04:41:54.158Z,0
2022-10-14T04:42:54.092Z,0
2022-10-14T04:43:55.191Z,0
2022-10-14T04:44:54.180Z,0
2022-10-14T04:45:54.126Z,0
2022-10-14T04:46:56.968Z,0
2022-10-14T04:47:55.704Z,0
2022-10-14T04:48:54.126Z,0
2022-10-14T04:49:54.126Z,0
2022-10-14T04:50:54.102Z,0
2022-10-14T04:51:55.230Z,0
2022-10-14T04:52:54.108Z,0
2022-10-14T04:53:54.130Z,0
2022-10-14T04:54:54.141Z,0
2022-10-14T04:55:54.256Z,0
2022-10-14T04:56:54.133Z,0
2022-10-14T04:57:56.988Z,0
2022-10-14T04:58:54.122Z,0
2022-10-14T04:59:54.150Z,0
2022-10-14T05:00:54.134Z,0
2022-10-14T05:01:54.436Z,0
2022-10-14T05:02:57.132Z,0
2022-10-14T05:03:54.190Z,0
2022-10-14T05:04:54.155Z,0
2022-10-14T05:05:54.124Z,0
2022-10-14T05:06:54.152Z,0
2022-10-14T05:07:54.253Z,0
2022-10-14T05:08:54.129Z,0
2022-10-14T05:10:01.171Z,0
2022-10-14T05:10:54.156Z,0
2022-10-14T05:11:54.181Z,0
2022-10-14T05:12:54.141Z,0
2022-10-14T05:13:56.918Z,0
2022-10-14T05:14:54.187Z,0
2022-10-14T05:15:54.168Z,0
2022-10-14T05:16:57.249Z,0
2022-10-14T05:17:54.139Z,0
2022-10-14T05:18:54.176Z,0
2022-10-14T05:19:54.189Z,0
2022-10-14T05:20:54.179Z,0
2022-10-14T05:21:54.223Z,0
2022-10-14T05:22:54.189Z,0
2022-10-14T05:23:54.168Z,0
2022-10-14T05:24:57.292Z,0
2022-10-14T05:25:54.375Z,4
2022-10-14T05:26:54.201Z,0
2022-10-14T05:27:54.152Z,0
2022-10-14T05:28:54.395Z,0
2022-10-14T05:29:54.159Z,0
2022-10-14T05:30:54.167Z,4
2022-10-14T05:32:00.045Z,4
2022-10-14T05:32:54.179Z,4
2022-10-14T05:33:54.162Z,0
2022-10-14T05:34:54.180Z,4
2022-10-14T05:36:05.532Z,4
2022-10-14T05:36:54.195Z,0
2022-10-14T05:37:54.187Z,4
2022-10-14T05:38:54.180Z,4
2022-10-14T05:39:54.203Z,8
2022-10-14T05:40:54.348Z,4
2022-10-14T05:41:54.203Z,4
2022-10-14T05:42:54.203Z,8
2022-10-14T05:43:54.197Z,4
2022-10-14T05:44:54.193Z,4
2022-10-14T05:45:54.198Z,4
2022-10-14T05:46:57.305Z,8
2022-10-14T05:47:54.245Z,8
2022-10-14T05:48:54.213Z,8
2022-10-14T05:49:54.201Z,4
2022-10-14T05:50:54.236Z,8
2022-10-14T05:51:55.042Z,8
2022-10-14T05:52:54.305Z,8
2022-10-14T05:53:54.214Z,8
2022-10-14T05:54:54.212Z,8
2022-10-14T05:55:55.428Z,12
2022-10-14T05:56:54.226Z,8
2022-10-14T05:57:54.290Z,8
2022-10-14T05:58:54.235Z,12
2022-10-14T05:59:54.255Z,12
2022-10-14T06:00:54.253Z,12
2022-10-14T06:01:54.245Z,16
2022-10-14T06:02:56.326Z,16
2022-10-14T06:03:54.299Z,16
2022-10-14T06:04:54.222Z,24
2022-10-14T06:05:54.238Z,20
2022-10-14T06:06:54.468Z,24
2022-10-14T06:07:57.320Z,24
2022-10-14T06:08:54.240Z,24
2022-10-14T06:09:54.246Z,28
2022-10-14T06:10:54.238Z,24
2022-10-14T06:11:54.281Z,24
2022-10-14T06:12:54.278Z,28
2022-10-14T06:13:54.241Z,28
2022-10-14T06:14:54.260Z,28
2022-10-14T06:15:54.270Z,32
2022-10-14T06:16:54.292Z,32
2022-10-14T06:17:54.276Z,32
2022-10-14T06:19:00.839Z,36
2022-10-14T06:19:54.284Z,32
2022-10-14T06:20:54.253Z,32
2022-10-14T06:21:54.270Z,32
2022-10-14T06:22:54.287Z,28
2022-10-14T06:23:54.313Z,28
2022-10-14T06:24:54.264Z,28
2022-10-14T06:25:54.301Z,24
2022-10-14T06:26:54.285Z,28
2022-10-14T06:27:54.284Z,28
2022-10-14T06:28:54.742Z,28
2022-10-14T06:29:57.040Z,32
2022-10-14T06:30:54.271Z,32
2022-10-14T06:31:54.310Z,32
2022-10-14T06:32:54.290Z,32
2022-10-14T06:33:54.371Z,36
2022-10-14T06:34:57.638Z,32
2022-10-14T06:35:54.283Z,36
2022-10-14T06:36:56.471Z,36
2022-10-14T06:37:54.323Z,40
2022-10-14T06:38:54.440Z,40
2022-10-14T06:39:54.338Z,44
2022-10-14T06:40:57.134Z,48
2022-10-14T06:41:54.318Z,48
2022-10-14T06:42:57.304Z,48
2022-10-14T06:43:54.291Z,56
2022-10-14T06:44:54.305Z,56
2022-10-14T06:45:57.122Z,60
2022-10-14T06:46:54.347Z,64
2022-10-14T06:47:54.347Z,72
2022-10-14T06:48:57.270Z,76
2022-10-14T06:49:54.330Z,76
2022-10-14T06:50:54.354Z,80
2022-10-14T06:51:57.151Z,88
2022-10-14T06:52:54.310Z,88
2022-10-14T06:53:54.345Z,92
2022-10-14T06:54:55.405Z,96
2022-10-14T06:55:54.371Z,100
2022-10-14T06:56:57.406Z,108
2022-10-14T06:57:54.325Z,112
2022-10-14T06:58:54.326Z,124
2022-10-14T06:59:54.365Z,132
2022-10-14T07:01:54.762Z,148
2022-10-14T07:02:59.924Z,160
2022-10-14T07:03:59.285Z,172
2022-10-14T07:04:54.385Z,184
2022-10-14T07:05:54.330Z,192
2022-10-14T07:06:54.409Z,200
2022-10-14T07:07:57.276Z,208
2022-10-14T07:08:54.349Z,216
2022-10-14T07:09:54.380Z,220
2022-10-14T07:10:54.343Z,220
2022-10-14T07:11:54.445Z,216
2022-10-14T07:12:54.378Z,220
2022-10-14T07:13:57.408Z,216
2022-10-14T07:14:54.349Z,212
2022-10-14T07:15:54.360Z,208
2022-10-14T07:16:54.375Z,192
2022-10-14T07:17:54.355Z,184
2022-10-14T07:18:55.545Z,168
2022-10-14T07:19:54.365Z,152
2022-10-14T07:20:54.378Z,144
2022-10-14T07:21:54.404Z,140
2022-10-14T07:22:54.470Z,132
2022-10-14T07:23:54.352Z,132
2022-10-14T07:24:57.444Z,128
2022-10-14T07:25:54.406Z,128
2022-10-14T07:26:54.563Z,124
2022-10-14T07:27:54.419Z,124
2022-10-14T07:28:54.706Z,124
2022-10-14T07:29:57.501Z,124
2022-10-14T07:30:54.386Z,128
2022-10-14T07:31:54.422Z,136
2022-10-14T07:32:54.444Z,148
2022-10-14T07:33:54.407Z,152
2022-10-14T07:34:54.441Z,164
2022-10-14T07:36:03.107Z,172
2022-10-14T07:36:54.391Z,180
2022-10-14T07:37:54.389Z,176
2022-10-14T07:38:54.705Z,164
2022-10-14T07:39:54.428Z,156
2022-10-14T07:40:57.253Z,144
2022-10-14T07:41:54.428Z,140
2022-10-14T07:42:54.400Z,140
2022-10-14T07:43:54.451Z,140
2022-10-14T07:44:54.470Z,140
2022-10-14T07:45:54.410Z,144
2022-10-14T07:46:54.428Z,148
2022-10-14T07:47:54.423Z,156
2022-10-14T07:49:03.917Z,160
2022-10-14T07:49:54.403Z,164
2022-10-14T07:50:54.428Z,168
2022-10-14T07:51:57.476Z,176
2022-10-14T07:52:57.732Z,176
2022-10-14T07:53:54.486Z,176
2022-10-14T07:54:54.469Z,172
2022-10-14T07:55:54.430Z,176
2022-10-14T07:56:54.433Z,180
2022-10-14T07:57:54.462Z,188
2022-10-14T07:58:54.436Z,188
2022-10-14T07:59:54.478Z,192
2022-10-14T08:00:57.506Z,192
2022-10-14T08:01:54.961Z,200
2022-10-14T08:02:57.557Z,220
2022-10-14T08:03:54.466Z,236
2022-10-14T08:05:00.817Z,252
2022-10-14T08:05:54.436Z,264
2022-10-14T08:06:54.491Z,272
2022-10-14T08:07:54.458Z,272
2022-10-14T08:08:54.578Z,268
2022-10-14T08:09:54.480Z,252
2022-10-14T08:10:55.570Z,240
2022-10-14T08:11:54.457Z,224
2022-10-14T08:12:54.536Z,204
2022-10-14T08:13:57.549Z,184
2022-10-14T08:14:55.139Z,176
2022-10-14T08:15:54.775Z,168
2022-10-14T08:16:54.872Z,168
2022-10-14T08:17:54.491Z,168
2022-10-14T08:18:57.670Z,180
2022-10-14T08:19:54.470Z,188
2022-10-14T08:20:54.463Z,204
2022-10-14T08:21:54.468Z,220
2022-10-14T08:22:54.487Z,232
2022-10-14T08:24:03.350Z,240
2022-10-14T08:24:54.630Z,252
2022-10-14T08:25:54.505Z,256
2022-10-14T08:26:54.544Z,260
2022-10-14T08:27:54.511Z,260
2022-10-14T08:28:54.894Z,260
2022-10-14T08:29:57.603Z,264
2022-10-14T08:30:54.480Z,272
2022-10-14T08:31:54.581Z,284
2022-10-14T08:32:54.498Z,292
2022-10-14T08:33:54.587Z,304
2022-10-14T08:34:54.561Z,316
2022-10-14T08:35:59.895Z,328
2022-10-14T08:36:54.509Z,336
2022-10-14T08:37:54.506Z,352
2022-10-14T08:38:54.562Z,360
2022-10-14T08:39:54.547Z,360
2022-10-14T08:41:03.513Z,344
2022-10-14T08:41:54.511Z,336
2022-10-14T08:42:54.568Z,324
2022-10-14T08:43:54.577Z,324
2022-10-14T08:44:54.722Z,324
2022-10-14T08:45:57.414Z,324
2022-10-14T08:46:58.998Z,328
2022-10-14T08:47:54.580Z,336
2022-10-14T08:48:54.503Z,340
2022-10-14T08:49:54.512Z,356
2022-10-14T08:50:54.542Z,388
2022-10-14T08:51:54.516Z,420
2022-10-14T08:52:54.529Z,448
2022-10-14T08:53:57.438Z,500
2022-10-14T08:54:54.536Z,572
2022-10-14T08:55:54.566Z,580
2022-10-14T08:56:57.758Z,556
2022-10-14T08:57:54.575Z,580
2022-10-14T08:58:54.601Z,688
2022-10-14T08:59:54.544Z,688
2022-10-14T09:00:54.551Z,880
2022-10-14T09:01:55.717Z,744
2022-10-14T09:02:54.817Z,688
2022-10-14T09:03:54.987Z,676
2022-10-14T09:04:54.541Z,652
2022-10-14T09:05:58.459Z,640
2022-10-14T09:06:54.572Z,620
2022-10-14T09:07:56.866Z,632
2022-10-14T09:08:54.587Z,644
2022-10-14T09:09:54.590Z,660
2022-10-14T09:10:54.551Z,692
2022-10-14T09:11:54.585Z,672
2022-10-14T09:12:58.104Z,660
2022-10-14T09:13:54.593Z,628
2022-10-14T09:14:54.604Z,604
2022-10-14T09:15:54.596Z,568
2022-10-14T09:17:00.274Z,544
2022-10-14T09:17:54.738Z,524
2022-10-14T09:19:02.114Z,520
2022-10-14T09:19:58.621Z,536
2022-10-14T09:20:54.565Z,568
2022-10-14T09:21:59.806Z,628
2022-10-14T09:22:54.681Z,680
2022-10-14T09:23:57.718Z,732
2022-10-14T09:24:54.569Z,644
2022-10-14T09:25:54.584Z,632
2022-10-14T09:26:54.881Z,680
2022-10-14T09:27:54.720Z,788
2022-10-14T09:28:55.048Z,672
2022-10-14T09:29:57.514Z,568
2022-10-14T09:30:54.595Z,544
2022-10-14T09:31:54.617Z,548
2022-10-14T09:32:54.615Z,548
2022-10-14T09:33:54.583Z,564
2022-10-14T09:34:57.497Z,600
2022-10-14T09:35:54.925Z,584
2022-10-14T09:36:54.698Z,572
2022-10-14T09:37:54.612Z,596
2022-10-14T09:38:54.599Z,624
2022-10-14T09:39:54.612Z,648
2022-10-14T09:40:57.494Z,696
2022-10-14T09:41:54.664Z,812
2022-10-14T09:42:54.616Z,684
2022-10-14T09:43:54.619Z,648
2022-10-14T09:44:54.723Z,592
2022-10-14T09:45:57.807Z,552
2022-10-14T09:46:54.635Z,564
2022-10-14T09:47:54.633Z,576
2022-10-14T09:48:54.631Z,596
2022-10-14T09:49:54.607Z,616
2022-10-14T09:50:54.663Z,596
2022-10-14T09:51:57.421Z,560
2022-10-14T09:52:54.655Z,520
2022-10-14T09:53:54.684Z,500
2022-10-14T09:54:54.662Z,508
2022-10-14T09:55:54.682Z,528
2022-10-14T09:56:57.404Z,540
2022-10-14T09:57:54.665Z,568
2022-10-14T09:58:54.643Z,608
2022-10-14T09:59:54.692Z,624
2022-10-14T10:00:54.642Z,660
2022-10-14T10:01:54.692Z,720
2022-10-14T10:02:54.739Z,796
2022-10-14T10:03:55.351Z,892
2022-10-14T10:04:54.969Z,856
2022-10-14T10:05:54.776Z,836
2022-10-14T10:06:54.719Z,920
2022-10-14T10:07:57.704Z,1676
2022-10-14T10:08:54.653Z,1244
2022-10-14T10:09:54.682Z,1144
2022-10-14T10:10:54.651Z,1384
2022-10-14T10:11:54.665Z,1348
2022-10-14T10:12:54.665Z,1228
2022-10-14T10:13:54.650Z,1084
2022-10-14T10:14:54.787Z,952
2022-10-14T10:15:54.659Z,1216
2022-10-14T10:16:56.076Z,1464
2022-10-14T10:17:54.709Z,1264
2022-10-14T10:18:57.793Z,1172
2022-10-14T10:19:54.672Z,1148
2022-10-14T10:20:54.700Z,1488
2022-10-14T10:21:54.673Z,1492
2022-10-14T10:22:54.787Z,1384
2022-10-14T10:23:54.670Z,1236
2022-10-14T10:24:54.676Z,1072
2022-10-14T10:25:54.703Z,1044
2022-10-14T10:26:54.675Z,816
2022-10-14T10:27:57.756Z,748
2022-10-14T10:28:54.996Z,728
2022-10-14T10:30:00.698Z,876
2022-10-14T10:30:54.687Z,916
2022-10-14T10:31:54.975Z,852
2022-10-14T10:32:54.693Z,864
2022-10-14T10:33:54.823Z,844
2022-10-14T10:34:54.742Z,792
2022-10-14T10:35:54.691Z,832
2022-10-14T10:36:54.704Z,844
2022-10-14T10:37:54.689Z,760
2022-10-14T10:38:54.782Z,740
2022-10-14T10:39:54.698Z,644
2022-10-14T10:40:55.816Z,636
2022-10-14T10:41:54.714Z,620
2022-10-14T10:42:54.703Z,628
2022-10-14T10:43:54.716Z,604
2022-10-14T10:44:54.929Z,580
2022-10-14T10:45:57.945Z,660
2022-10-14T10:46:54.820Z,772
2022-10-14T10:47:54.906Z,752
2022-10-14T10:48:54.833Z,964
2022-10-14T10:50:54.840Z,936
2022-10-14T10:51:54.825Z,708
2022-10-14T10:52:54.811Z,668
2022-10-14T10:53:54.837Z,700
2022-10-14T10:54:54.899Z,708
2022-10-14T10:55:54.848Z,716
2022-10-14T10:56:57.619Z,696
2022-10-14T10:57:54.859Z,756
2022-10-14T10:58:54.940Z,880
2022-10-14T10:59:54.944Z,784
2022-10-14T11:00:54.881Z,916
2022-10-14T11:01:55.263Z,628
2022-10-14T11:02:54.862Z,612
2022-10-14T11:03:54.855Z,648
2022-10-14T11:04:54.843Z,868
2022-10-14T11:05:54.865Z,924
2022-10-14T11:06:54.897Z,1016
2022-10-14T11:07:54.845Z,1108
2022-10-14T11:08:54.868Z,1284
2022-10-14T11:09:54.835Z,1068
2022-10-14T11:10:54.935Z,1008
2022-10-14T11:11:54.848Z,896
2022-10-14T11:12:56.000Z,820
2022-10-14T11:13:55.362Z,744
2022-10-14T11:14:54.844Z,620
2022-10-14T11:15:54.903Z,544
2022-10-14T11:16:55.024Z,616
2022-10-14T11:17:54.893Z,628
2022-10-14T11:18:54.876Z,628
2022-10-14T11:19:54.862Z,652
2022-10-14T11:20:54.872Z,632
2022-10-14T11:21:54.918Z,620
2022-10-14T11:22:54.983Z,668
2022-10-14T11:23:57.684Z,644
2022-10-14T11:24:54.871Z,612
2022-10-14T11:25:54.911Z,604
2022-10-14T11:26:54.917Z,652
2022-10-14T11:27:54.867Z,660
2022-10-14T11:28:56.559Z,612
2022-10-14T11:29:54.815Z,612
2022-10-14T11:30:54.788Z,516
2022-10-14T11:31:54.796Z,556
2022-10-14T11:32:54.822Z,536
2022-10-14T11:33:54.837Z,516
2022-10-14T11:34:57.950Z,496
2022-10-14T11:35:54.834Z,496
2022-10-14T11:36:54.833Z,512
2022-10-14T11:37:54.830Z,524
2022-10-14T11:38:54.925Z,516
2022-10-14T11:39:57.977Z,500
2022-10-14T11:40:54.813Z,492
2022-10-14T11:41:54.817Z,496
2022-10-14T11:42:54.899Z,516
2022-10-14T11:43:54.870Z,520
2022-10-14T11:44:54.832Z,508
2022-10-14T11:45:57.669Z,508
2022-10-14T11:46:54.834Z,504
2022-10-14T11:47:54.838Z,496
2022-10-14T11:48:54.851Z,496
2022-10-14T11:49:54.833Z,492
2022-10-14T11:50:57.674Z,488
2022-10-14T11:51:54.853Z,488
2022-10-14T11:52:54.844Z,484
2022-10-14T11:53:54.879Z,492
2022-10-14T11:54:55.055Z,492
2022-10-14T11:55:54.834Z,488
2022-10-14T11:56:57.604Z,500
2022-10-14T11:57:54.836Z,496
2022-10-14T11:58:54.915Z,504
2022-10-14T11:59:54.861Z,508
2022-10-14T12:00:54.928Z,496
2022-10-14T12:01:55.078Z,492
2022-10-14T12:02:55.366Z,484
2022-10-14T12:03:54.917Z,480
2022-10-14T12:04:54.917Z,488
2022-10-14T12:05:54.875Z,484
2022-10-14T12:06:54.897Z,480
2022-10-14T12:07:57.659Z,460
2022-10-14T12:08:54.891Z,476
2022-10-14T12:10:01.337Z,492
2022-10-14T12:10:55.005Z,492
2022-10-14T12:11:54.879Z,508
2022-10-14T12:12:57.891Z,520
2022-10-14T12:13:54.937Z,492
2022-10-14T12:14:54.945Z,452
2022-10-14T12:15:55.089Z,452
2022-10-14T12:16:54.879Z,448
2022-10-14T12:17:54.888Z,448
2022-10-14T12:18:57.987Z,448
2022-10-14T12:19:54.985Z,444
2022-10-14T12:20:54.883Z,440
2022-10-14T12:21:57.514Z,428
2022-10-14T12:22:54.914Z,420
2022-10-14T12:23:56.051Z,372
2022-10-14T12:24:54.903Z,384
2022-10-14T12:25:54.944Z,372
2022-10-14T12:26:54.949Z,356
2022-10-14T12:27:54.901Z,340
2022-10-14T12:29:02.911Z,328
2022-10-14T12:29:58.163Z,320
2022-10-14T12:30:54.937Z,316
2022-10-14T12:31:54.899Z,316
2022-10-14T12:32:54.905Z,320
2022-10-14T12:33:54.937Z,316
2022-10-14T12:34:57.950Z,316
2022-10-14T12:35:54.925Z,312
2022-10-14T12:36:54.903Z,292
2022-10-14T12:37:55.323Z,292
2022-10-14T12:38:55.040Z,292
2022-10-14T12:39:54.902Z,288
2022-10-14T12:40:54.913Z,288
2022-10-14T12:41:54.943Z,280
2022-10-14T12:42:56.107Z,268
2022-10-14T12:43:59.032Z,260
2022-10-14T12:44:54.955Z,252
2022-10-14T12:45:58.033Z,260
2022-10-14T12:46:54.923Z,252
2022-10-14T12:47:54.956Z,248
2022-10-14T12:48:54.937Z,244
2022-10-14T12:49:54.936Z,244
2022-10-14T12:50:54.927Z,236
2022-10-14T12:51:54.959Z,232
2022-10-14T12:52:54.938Z,232
2022-10-14T12:53:54.943Z,232
2022-10-14T12:54:55.016Z,216
2022-10-14T12:55:54.974Z,220
2022-10-14T12:56:58.067Z,224
2022-10-14T12:57:54.956Z,220
2022-10-14T12:58:54.971Z,220
2022-10-14T12:59:55.259Z,216
2022-10-14T13:00:55.125Z,220
2022-10-14T13:01:55.225Z,220
2022-10-14T13:02:55.525Z,220
2022-10-14T13:03:55.559Z,220
2022-10-14T13:04:54.961Z,216
2022-10-14T13:05:54.975Z,212
2022-10-14T13:06:54.989Z,208
2022-10-14T13:07:58.722Z,196
2022-10-14T13:08:56.076Z,192
2022-10-14T13:09:54.971Z,188
2022-10-14T13:10:54.961Z,192
2022-10-14T13:11:54.970Z,192
2022-10-14T13:12:58.052Z,196
2022-10-14T13:13:55.133Z,204
2022-10-14T13:14:55.034Z,212
2022-10-14T13:15:54.973Z,220
2022-10-14T13:16:54.984Z,236
2022-10-14T13:17:55.077Z,248
2022-10-14T13:18:55.018Z,256
2022-10-14T13:19:54.994Z,252
2022-10-14T13:20:54.994Z,248
2022-10-14T13:21:54.980Z,240
2022-10-14T13:22:55.025Z,232
2022-10-14T13:23:57.875Z,220
2022-10-14T13:24:55.000Z,208
2022-10-14T13:25:55.050Z,196
2022-10-14T13:26:58.083Z,184
2022-10-14T13:27:55.025Z,172
2022-10-14T13:28:55.304Z,164
2022-10-14T13:29:55.026Z,160
2022-10-14T13:30:55.050Z,160
2022-10-14T13:31:55.011Z,156
2022-10-14T13:32:55.039Z,160
2022-10-14T13:33:55.134Z,164
2022-10-14T13:34:55.049Z,164
2022-10-14T13:35:55.015Z,172
2022-10-14T13:36:55.073Z,176
2022-10-14T13:37:55.053Z,184
2022-10-14T13:38:55.126Z,196
2022-10-14T13:39:57.894Z,200
2022-10-14T13:40:55.048Z,212
2022-10-14T13:41:55.199Z,224
2022-10-14T13:42:55.045Z,240
2022-10-14T13:43:55.037Z,256
2022-10-14T13:44:55.124Z,268
2022-10-14T13:45:55.053Z,284
2022-10-14T13:46:55.078Z,308
2022-10-14T13:47:55.040Z,324
2022-10-14T13:48:55.039Z,340
2022-10-14T13:49:55.119Z,352
2022-10-14T13:51:17.053Z,360
2022-10-14T13:51:55.039Z,380
2022-10-14T13:52:55.089Z,392
2022-10-14T13:53:55.062Z,392
2022-10-14T13:54:55.063Z,396
2022-10-14T13:56:01.963Z,404
2022-10-14T13:58:11.289Z,404
2022-10-14T13:58:22.005Z,404
2022-10-14T14:00:45.595Z,364
2022-10-14T14:00:55.075Z,356
2022-10-14T14:01:58.414Z,332
2022-10-14T14:03:10.586Z,304
2022-10-14T14:03:55.024Z,292
2022-10-14T14:04:55.016Z,284
2022-10-14T14:05:55.104Z,268
2022-10-14T14:08:40.133Z,244
2022-10-14T14:08:52.921Z,244
2022-10-14T14:09:51.044Z,236
2022-10-14T14:11:23.302Z,236
2022-10-14T14:11:51.087Z,240
2022-10-14T14:12:51.057Z,236
2022-10-14T14:14:07.210Z,232
2022-10-14T14:14:51.071Z,228
2022-10-14T14:15:51.135Z,212